createdAt,value
2019-05-10T00:00:47.454Z,7.58
2019-05-10T00:03:35.140Z,7.40
2019-05-10T00:06:23.381Z,8.15
2019-05-10T00:08:52.768Z,8.20
2019-05-10T00:11:31.169Z,7.40
2019-05-10T00:14:21.618Z,7.03
2019-05-10T00:16:52.767Z,6.55
2019-05-10T00:19:22.894Z,6.35
2019-05-10T00:21:53.124Z,6.05
2019-05-10T00:24:24.323Z,5.95
2019-05-10T00:26:54.263Z,6.40
2019-05-10T00:29:24.472Z,5.78
2019-05-10T00:31:54.622Z,5.50
2019-05-10T00:34:24.512Z,5.87
2019-05-10T00:36:54.568Z,6.05
2019-05-10T00:39:24.402Z,5.62
2019-05-10T00:41:54.455Z,5.42
2019-05-10T00:44:24.278Z,5.60
2019-05-10T00:46:54.435Z,5.70
2019-05-10T00:49:24.536Z,5.45
2019-05-10T00:51:54.682Z,6.72
2019-05-10T00:54:24.739Z,6.17
2019-05-10T00:56:54.816Z,7.20
2019-05-10T00:59:24.885Z,6.33
2019-05-10T01:01:54.711Z,5.70
2019-05-10T01:04:25.589Z,5.60
2019-05-10T01:06:56.522Z,5.70
2019-05-10T01:09:26.829Z,5.90
2019-05-10T01:11:56.906Z,5.95
2019-05-10T01:14:26.994Z,5.78
2019-05-10T01:16:56.801Z,6.00
2019-05-10T01:19:26.620Z,6.25
2019-05-10T01:21:56.415Z,6.03
2019-05-10T01:24:26.234Z,5.67
2019-05-10T01:26:56.317Z,6.03
2019-05-10T01:29:26.137Z,5.50
2019-05-10T01:31:56.384Z,5.08
2019-05-10T01:34:26.435Z,5.95
2019-05-10T01:36:56.272Z,5.70
2019-05-10T01:39:26.336Z,6.03
2019-05-10T01:41:56.168Z,6.20
2019-05-10T01:44:25.980Z,5.53
2019-05-10T01:46:56.129Z,5.85
2019-05-10T01:49:25.950Z,5.75
2019-05-10T01:51:56.088Z,5.70
2019-05-10T01:54:25.966Z,7.60
2019-05-10T01:56:56.095Z,5.83
2019-05-10T01:59:25.902Z,5.87
2019-05-10T02:01:55.726Z,5.65
2019-05-10T02:04:25.771Z,5.67
2019-05-10T02:06:55.830Z,5.92
2019-05-10T02:09:25.689Z,6.03
2019-05-10T02:11:55.763Z,6.42
2019-05-10T02:14:25.859Z,6.05
2019-05-10T02:16:55.728Z,6.50
2019-05-10T02:19:25.556Z,6.60
2019-05-10T02:21:55.606Z,7.25
2019-05-10T02:24:25.433Z,7.72
2019-05-10T02:26:55.247Z,7.10
2019-05-10T02:29:25.042Z,9.20
2019-05-10T02:31:55.131Z,7.28
2019-05-10T02:34:24.952Z,7.90
2019-05-10T02:36:54.779Z,8.15
2019-05-10T02:39:24.855Z,8.58
2019-05-10T02:41:54.675Z,8.33
2019-05-10T02:44:24.480Z,8.95
2019-05-10T02:46:54.305Z,10.13
2019-05-10T02:49:24.147Z,10.75
2019-05-10T02:51:54.212Z,10.78
2019-05-10T02:54:24.405Z,10.60
2019-05-10T02:56:55.656Z,11.12
2019-05-10T02:59:27.084Z,10.58
2019-05-10T03:01:57.796Z,11.45
2019-05-10T03:04:28.408Z,11.22
2019-05-10T03:07:04.530Z,12.30
2019-05-10T03:09:35.374Z,13.13
2019-05-10T03:12:26.398Z,14.18
2019-05-10T03:14:58.062Z,14.63
2019-05-10T03:17:28.722Z,15.83
2019-05-10T03:20:00.250Z,15.18
2019-05-10T03:22:33.169Z,17.65
2019-05-10T03:25:03.062Z,17.05
2019-05-10T03:27:33.540Z,18.50
2019-05-10T03:30:03.448Z,18.48
2019-05-10T03:32:34.802Z,20.05
2019-05-10T03:35:06.891Z,18.42
2019-05-10T03:37:37.239Z,20.05
2019-05-10T03:40:08.852Z,19.07
2019-05-10T03:42:39.068Z,19.25
2019-05-10T03:45:09.865Z,18.85
2019-05-10T03:47:41.172Z,20.12
2019-05-10T03:50:11.495Z,20.52
2019-05-10T03:52:41.387Z,20.00
2019-05-10T03:55:11.735Z,21.52
2019-05-10T03:57:41.555Z,21.60
2019-05-10T04:00:13.012Z,21.77
2019-05-10T04:02:42.851Z,22.52
2019-05-10T04:05:12.807Z,21.57
2019-05-10T04:07:43.029Z,21.48
2019-05-10T04:10:13.660Z,21.97
2019-05-10T04:12:43.744Z,22.95
2019-05-10T04:15:13.702Z,22.70
2019-05-10T04:17:43.541Z,20.25
2019-05-10T04:20:13.543Z,22.98
2019-05-10T04:22:43.351Z,23.18
2019-05-10T04:25:13.331Z,24.00
2019-05-10T04:27:43.593Z,23.75
2019-05-10T04:30:13.772Z,24.67
2019-05-10T04:32:43.625Z,24.57
2019-05-10T04:35:13.679Z,24.98
2019-05-10T04:37:43.501Z,24.25
2019-05-10T04:40:13.459Z,23.47
2019-05-10T04:42:43.296Z,23.70
2019-05-10T04:45:14.706Z,22.50
2019-05-10T04:47:44.548Z,23.27
2019-05-10T04:50:14.525Z,22.67
2019-05-10T04:52:44.680Z,21.65
2019-05-10T04:55:14.787Z,23.42
2019-05-10T04:57:50.579Z,23.95
2019-05-10T05:00:16.874Z,23.75
2019-05-10T05:02:46.995Z,23.18
2019-05-10T05:05:17.316Z,24.43
2019-05-10T05:07:47.177Z,22.77
2019-05-10T05:10:17.324Z,23.90
2019-05-10T05:12:47.155Z,23.35
2019-05-10T05:15:17.379Z,25.17
2019-05-10T05:17:47.273Z,25.08
2019-05-10T05:20:17.520Z,24.37
2019-05-10T05:22:47.369Z,26.17
2019-05-10T05:25:17.480Z,26.00
2019-05-10T05:27:47.559Z,25.25
2019-05-10T05:30:17.552Z,26.60
2019-05-10T05:32:47.645Z,25.23
2019-05-10T05:35:17.776Z,25.25
2019-05-10T05:37:47.585Z,27.32
2019-05-10T05:40:17.763Z,28.05
2019-05-10T05:42:47.578Z,30.10
2019-05-10T05:45:18.455Z,27.95
2019-05-10T05:47:48.632Z,27.05
2019-05-10T05:50:18.869Z,27.07
2019-05-10T05:52:48.771Z,28.27
2019-05-10T05:55:22.762Z,27.13
2019-05-10T05:57:50.415Z,26.25
2019-05-10T06:00:20.322Z,28.10
2019-05-10T06:02:50.238Z,26.52
2019-05-10T06:05:33.882Z,26.42
2019-05-10T06:07:52.524Z,26.82
2019-05-10T06:10:22.843Z,27.30
2019-05-10T06:12:53.086Z,26.02
2019-05-10T06:15:28.275Z,25.20
2019-05-10T06:17:57.191Z,25.82
2019-05-10T06:20:26.067Z,27.37
2019-05-10T06:23:06.229Z,27.62
2019-05-10T06:25:38.901Z,29.12
2019-05-10T06:27:59.225Z,29.98
2019-05-10T06:30:29.201Z,29.23
2019-05-10T06:33:00.858Z,28.17
2019-05-10T06:35:30.905Z,27.35
2019-05-10T06:38:00.734Z,28.65
2019-05-10T06:40:35.656Z,25.23
2019-05-10T06:43:06.762Z,26.57
2019-05-10T06:45:35.046Z,24.63
2019-05-10T06:48:04.891Z,23.25
2019-05-10T06:50:34.724Z,23.15
2019-05-10T06:53:07.805Z,22.90
2019-05-10T06:55:36.517Z,21.27
2019-05-10T06:58:06.370Z,18.27
2019-05-10T07:00:38.241Z,13.65
2019-05-10T07:03:07.790Z,12.47
2019-05-10T07:05:37.651Z,10.88
2019-05-10T07:08:16.446Z,11.35
2019-05-10T07:10:39.617Z,11.22
2019-05-10T07:13:09.883Z,11.73
2019-05-10T07:15:42.351Z,10.90
2019-05-10T07:18:16.619Z,10.08
2019-05-10T07:20:43.628Z,7.70
2019-05-10T07:23:13.463Z,8.10
2019-05-10T07:25:46.451Z,6.58
2019-05-10T07:28:15.773Z,7.87
2019-05-10T07:30:46.580Z,8.08
2019-05-10T07:33:16.427Z,7.53
2019-05-10T07:35:46.284Z,7.67
2019-05-10T07:38:16.118Z,6.45
2019-05-10T07:40:46.209Z,5.47
2019-05-10T07:43:24.685Z,5.55
2019-05-10T07:45:47.862Z,5.47
2019-05-10T07:48:17.751Z,6.00
2019-05-10T07:50:49.295Z,5.85
2019-05-10T07:53:22.775Z,5.87
2019-05-10T07:55:51.095Z,6.00
2019-05-10T07:58:20.919Z,5.67
2019-05-10T08:00:50.764Z,5.78
2019-05-10T08:03:23.717Z,5.78
2019-05-10T08:05:57.029Z,5.75
2019-05-10T08:08:24.837Z,6.40
2019-05-10T08:10:54.647Z,6.00
2019-05-10T08:13:25.290Z,5.25
2019-05-10T08:15:55.301Z,5.90
2019-05-10T08:18:25.605Z,5.37
2019-05-10T08:21:01.990Z,5.62
2019-05-10T08:23:28.179Z,5.12
2019-05-10T08:25:58.275Z,5.20
2019-05-10T08:28:36.109Z,5.53
2019-05-10T08:31:02.404Z,5.35
2019-05-10T08:33:33.001Z,4.65
2019-05-10T08:36:05.191Z,4.25
2019-05-10T08:38:34.610Z,4.50
2019-05-10T08:41:08.075Z,4.78
2019-05-10T08:43:38.881Z,4.15
2019-05-10T08:46:08.167Z,4.28
2019-05-10T08:48:42.901Z,4.55
2019-05-10T08:52:42.350Z,4.30
2019-05-10T08:55:13.958Z,4.08
2019-05-10T08:57:49.209Z,4.12
2019-05-10T09:00:15.442Z,3.70
2019-05-10T09:02:45.560Z,3.83
2019-05-10T09:05:15.517Z,3.30
2019-05-10T09:07:45.558Z,3.85
2019-05-10T09:10:15.907Z,3.42
2019-05-10T09:12:51.148Z,4.03
2019-05-10T09:15:17.666Z,3.20
2019-05-10T09:17:48.962Z,3.67
2019-05-10T09:20:22.063Z,3.33
2019-05-10T09:22:52.624Z,3.33
2019-05-10T09:25:29.172Z,3.58
2019-05-10T09:27:53.442Z,3.52
2019-05-10T09:30:35.653Z,3.65
2019-05-10T09:33:10.589Z,3.10
2019-05-10T09:35:39.014Z,3.70
2019-05-10T09:38:09.358Z,3.45
2019-05-10T09:40:42.568Z,3.52
2019-05-10T09:43:14.410Z,3.80
2019-05-10T09:45:42.554Z,3.42
2019-05-10T09:48:13.015Z,3.22
2019-05-10T09:50:47.144Z,3.33
2019-05-10T09:53:21.743Z,3.27
2019-05-10T09:55:55.316Z,3.62
2019-05-10T09:58:21.731Z,3.60
2019-05-10T10:00:49.553Z,3.30
2019-05-10T10:03:21.199Z,3.25
2019-05-10T10:05:55.280Z,3.62
2019-05-10T10:08:22.610Z,3.83
2019-05-10T10:10:52.559Z,3.72
2019-05-10T10:13:38.920Z,3.37
2019-05-10T10:15:54.160Z,3.50
2019-05-10T10:18:25.556Z,3.60
2019-05-10T10:20:56.036Z,3.77
2019-05-10T10:23:30.701Z,3.42
2019-05-10T10:25:58.046Z,3.05
2019-05-10T10:28:28.695Z,4.05
2019-05-10T10:31:05.018Z,3.10
2019-05-10T10:33:30.144Z,3.40
2019-05-10T10:36:07.726Z,5.35
2019-05-10T10:38:37.139Z,6.30
2019-05-10T10:41:04.958Z,6.35
2019-05-10T10:43:37.033Z,7.15
2019-05-10T10:46:11.885Z,7.90
2019-05-10T10:48:43.642Z,8.75
2019-05-10T10:51:11.274Z,11.28
2019-05-10T10:53:41.429Z,11.08
2019-05-10T10:56:11.319Z,12.90
2019-05-10T10:58:42.473Z,12.13
2019-05-10T11:01:21.479Z,12.78
2019-05-10T11:03:44.145Z,11.85
2019-05-10T11:06:15.445Z,11.10
2019-05-10T11:08:45.525Z,11.35
2019-05-10T11:11:15.623Z,11.60
2019-05-10T11:13:51.299Z,10.58
2019-05-10T11:16:17.030Z,11.22
2019-05-10T11:18:47.120Z,11.03
2019-05-10T11:21:16.926Z,10.53
2019-05-10T11:23:46.742Z,12.33
2019-05-10T11:26:16.811Z,14.10
2019-05-10T11:28:46.639Z,15.48
2019-05-10T11:31:16.779Z,14.40
2019-05-10T11:33:47.282Z,16.42
2019-05-10T11:36:18.188Z,15.38
2019-05-10T11:38:56.549Z,14.78
2019-05-10T11:41:23.731Z,13.45
2019-05-10T11:43:51.064Z,11.83
2019-05-10T11:46:21.292Z,12.25
2019-05-10T11:48:51.209Z,11.00
2019-05-10T11:51:21.344Z,11.97
2019-05-10T11:53:55.541Z,11.40
2019-05-10T11:56:27.352Z,11.30
2019-05-10T11:58:55.591Z,10.03
2019-05-10T12:01:25.546Z,10.15
2019-05-10T12:03:55.735Z,9.23
2019-05-10T12:06:25.822Z,9.40
2019-05-10T12:09:01.004Z,8.98
2019-05-10T12:11:33.322Z,8.03
2019-05-10T12:14:02.111Z,7.70
2019-05-10T12:16:33.361Z,8.40
2019-05-10T12:19:15.130Z,7.97
2019-05-10T12:21:35.229Z,7.12
2019-05-10T12:24:26.114Z,7.67
2019-05-10T12:29:13.533Z,7.53
2019-05-10T12:31:41.465Z,7.05
2019-05-10T12:34:14.480Z,6.75
2019-05-10T12:36:43.653Z,6.83
2019-05-10T12:39:14.929Z,6.87
2019-05-10T12:41:48.489Z,7.42
2019-05-10T12:44:16.637Z,7.00
2019-05-10T12:46:46.461Z,7.78
2019-05-10T12:49:16.325Z,7.47
2019-05-10T12:51:46.438Z,8.30
2019-05-10T12:54:18.460Z,7.87
2019-05-10T12:56:47.933Z,8.05
2019-05-10T12:59:17.798Z,8.33
2019-05-10T13:01:47.671Z,8.85
2019-05-10T13:04:17.512Z,8.23
2019-05-10T13:06:47.352Z,7.33
2019-05-10T13:09:17.206Z,7.20
2019-05-10T13:11:47.396Z,7.78
2019-05-10T13:14:17.518Z,8.38
2019-05-10T13:16:47.735Z,10.50
2019-05-10T13:19:20.064Z,5.80
2019-05-10T13:21:53.864Z,5.08
2019-05-10T13:24:22.104Z,5.87
2019-05-10T13:26:51.936Z,6.75
2019-05-10T13:29:21.758Z,7.08
2019-05-10T13:31:51.951Z,7.70
2019-05-10T13:34:24.212Z,6.50
2019-05-10T13:36:53.998Z,6.70
2019-05-10T13:39:25.534Z,5.67
2019-05-10T13:41:57.105Z,6.47
2019-05-10T13:44:28.759Z,6.33
2019-05-10T13:46:58.604Z,8.50
2019-05-10T13:49:28.480Z,8.85
2019-05-10T13:51:58.604Z,8.40
2019-05-10T13:54:31.247Z,9.10
2019-05-10T13:56:59.932Z,9.10
2019-05-10T13:59:29.775Z,10.05
2019-05-10T14:01:59.848Z,11.08
2019-05-10T14:04:33.882Z,11.53
2019-05-10T14:07:01.443Z,11.85
2019-05-10T14:09:31.287Z,8.50
2019-05-10T14:12:01.411Z,9.33
2019-05-10T14:14:31.554Z,9.63
2019-05-10T14:17:01.430Z,9.75
2019-05-10T14:19:35.611Z,9.85
2019-05-10T14:22:03.255Z,9.10
2019-05-10T14:24:34.999Z,9.70
2019-05-10T14:27:05.140Z,9.03
2019-05-10T14:29:36.918Z,9.70
2019-05-10T14:32:07.222Z,9.90
2019-05-10T14:34:43.955Z,10.82
2019-05-10T14:37:14.343Z,10.30
2019-05-10T14:39:42.769Z,9.55
2019-05-10T14:42:12.608Z,8.98
2019-05-10T14:44:42.960Z,9.58
2019-05-10T14:47:13.076Z,9.78
2019-05-10T14:49:46.947Z,9.60
2019-05-10T14:52:14.449Z,11.03
2019-05-10T14:54:49.590Z,10.55
2019-05-10T14:57:19.647Z,9.45
2019-05-10T14:59:49.492Z,10.85
2019-05-10T15:02:22.876Z,11.10
2019-05-10T15:04:51.178Z,11.30
2019-05-10T15:07:21.243Z,10.82
2019-05-10T15:09:54.387Z,11.15
2019-05-10T15:12:22.917Z,11.90
2019-05-10T15:14:53.281Z,10.68
2019-05-10T15:17:23.177Z,13.03
2019-05-10T15:19:58.001Z,14.95
2019-05-10T15:22:26.879Z,19.27
2019-05-10T15:25:00.712Z,17.95
2019-05-10T15:27:30.587Z,21.65
2019-05-10T15:30:05.479Z,21.27
2019-05-10T15:32:32.225Z,18.27
2019-05-10T15:35:06.941Z,15.25
2019-05-10T15:37:34.119Z,16.95
2019-05-10T15:40:07.897Z,16.45
2019-05-10T15:42:38.477Z,16.50
2019-05-10T15:45:12.111Z,15.83
2019-05-10T15:47:50.494Z,15.30
2019-05-10T15:50:13.851Z,15.70
2019-05-10T15:52:46.451Z,15.38
2019-05-10T16:19:13.064Z,14.18
2019-05-10T16:24:40.435Z,14.45
2019-05-10T16:27:10.334Z,11.20
2019-05-10T16:29:41.421Z,11.20
2019-05-10T16:32:11.396Z,10.15
2019-05-10T16:34:41.555Z,10.20
2019-05-10T16:37:11.448Z,9.93
2019-05-10T16:39:41.291Z,10.78
2019-05-10T16:42:11.599Z,10.63
2019-05-10T16:44:42.375Z,10.65
2019-05-10T16:47:12.312Z,11.22
2019-05-10T16:49:47.712Z,10.70
2019-05-10T16:52:19.446Z,10.75
2019-05-10T16:54:47.275Z,11.97
2019-05-10T16:57:17.087Z,11.00
2019-05-10T16:59:46.930Z,11.28
2019-05-10T17:02:17.037Z,12.35
2019-05-10T17:04:46.864Z,13.28
2019-05-10T17:07:18.866Z,11.83
2019-05-10T17:09:49.550Z,12.18
2019-05-10T17:12:22.012Z,12.70
2019-05-10T17:17:48.339Z,12.95
2019-05-10T17:20:18.303Z,12.65
2019-05-10T17:22:48.375Z,12.45
2019-05-10T17:25:18.258Z,12.98
2019-05-10T17:27:50.470Z,11.73
2019-05-10T17:30:22.341Z,11.53
2019-05-10T17:32:52.680Z,12.03
2019-05-10T17:35:22.914Z,11.88
2019-05-10T17:37:53.140Z,11.67
2019-05-10T17:40:24.383Z,12.43
2019-05-10T17:42:54.292Z,11.88
2019-05-10T17:45:24.515Z,11.60
2019-05-10T17:47:54.345Z,12.28
2019-05-10T17:50:24.222Z,13.15
2019-05-10T17:52:54.037Z,13.70
2019-05-10T17:55:25.554Z,14.60
2019-05-10T17:57:56.572Z,15.00
2019-05-10T18:00:27.507Z,14.23
2019-05-10T18:02:57.347Z,15.32
2019-05-10T18:05:27.519Z,15.55
2019-05-10T18:07:57.661Z,15.58
2019-05-10T18:10:27.461Z,15.40
2019-05-10T18:13:02.956Z,16.32
2019-05-10T18:15:32.862Z,16.40
2019-05-10T18:18:02.644Z,17.67
2019-05-10T18:20:40.812Z,17.57
2019-05-10T18:23:05.419Z,16.20
2019-05-10T18:25:35.548Z,16.02
2019-05-10T18:28:05.442Z,16.25
2019-05-10T18:30:35.249Z,17.35
2019-05-10T18:33:06.805Z,17.23
2019-05-10T18:35:36.844Z,17.75
2019-05-10T18:38:06.990Z,17.57
2019-05-10T18:40:38.408Z,18.35
2019-05-10T18:43:08.284Z,18.57
2019-05-10T18:45:38.472Z,18.02
2019-05-10T18:48:08.347Z,18.95
2019-05-10T18:50:44.515Z,18.27
2019-05-10T18:53:10.874Z,18.60
2019-05-10T18:55:40.989Z,18.98
2019-05-10T18:58:11.100Z,19.62
2019-05-10T19:00:40.913Z,20.30
2019-05-10T19:03:11.040Z,21.37
2019-05-10T19:05:41.151Z,21.77
2019-05-10T19:08:11.192Z,20.82
2019-05-10T19:10:41.300Z,20.85
2019-05-10T19:13:11.423Z,21.12
2019-05-10T19:15:46.117Z,22.02
2019-05-10T19:18:17.757Z,22.40
2019-05-10T19:20:48.766Z,22.62
2019-05-10T19:23:19.485Z,24.70
2019-05-10T19:25:51.545Z,24.63
2019-05-10T19:28:20.811Z,24.92
2019-05-10T19:30:52.704Z,24.07
2019-05-10T19:33:22.693Z,25.25
2019-05-10T19:35:52.833Z,26.50
2019-05-10T19:38:22.635Z,26.52
2019-05-10T19:40:52.782Z,28.80
2019-05-10T19:43:23.995Z,28.05
2019-05-10T19:45:57.414Z,28.70
2019-05-10T19:48:29.205Z,27.85
2019-05-10T19:50:57.464Z,28.62
2019-05-10T19:53:27.586Z,30.88
2019-05-10T19:55:59.258Z,30.05
2019-05-10T19:58:32.420Z,30.40
2019-05-10T20:01:00.764Z,31.62
2019-05-10T20:03:30.907Z,31.80
2019-05-10T20:06:01.132Z,32.88
2019-05-10T20:08:31.251Z,33.65
2019-05-10T20:11:01.401Z,33.83
2019-05-10T20:13:31.305Z,34.78
2019-05-10T20:16:01.599Z,34.33
2019-05-10T20:18:31.574Z,33.50
2019-05-10T20:21:01.492Z,33.13
2019-05-10T20:23:31.666Z,34.27
2019-05-10T20:26:01.485Z,33.50
2019-05-10T20:28:31.605Z,34.95
2019-05-10T20:31:01.436Z,36.90
2019-05-10T20:33:31.991Z,35.63
2019-05-10T20:36:02.069Z,35.48
2019-05-10T20:38:32.304Z,35.68
2019-05-10T20:41:02.109Z,36.55
2019-05-10T20:43:32.312Z,37.45
2019-05-10T20:46:02.432Z,35.80
2019-05-10T20:48:32.587Z,37.20
2019-05-10T20:51:02.391Z,38.63
2019-05-10T20:53:32.491Z,40.12
2019-05-10T20:56:02.341Z,39.53
2019-05-10T20:58:32.139Z,39.90
2019-05-10T21:01:01.990Z,41.42
2019-05-10T21:03:32.463Z,41.73
2019-05-10T21:06:02.280Z,40.67
2019-05-10T21:08:32.097Z,42.67
2019-05-10T21:11:01.985Z,43.35
2019-05-10T21:13:32.124Z,44.00
2019-05-10T21:16:02.448Z,43.15
2019-05-10T21:18:32.246Z,43.08
2019-05-10T21:21:02.064Z,43.25
2019-05-10T21:23:32.202Z,42.85
2019-05-10T21:26:02.008Z,44.20
2019-05-10T21:28:31.913Z,44.00
2019-05-10T21:31:02.145Z,43.10
2019-05-10T21:33:32.278Z,44.35
2019-05-10T21:36:02.385Z,43.00
2019-05-10T21:38:33.588Z,41.15
2019-05-10T21:41:03.957Z,42.95
2019-05-10T21:43:34.086Z,42.13
2019-05-10T21:46:04.073Z,43.40
2019-05-10T21:48:33.886Z,44.20
2019-05-10T21:51:03.762Z,43.95
2019-05-10T21:53:33.641Z,44.88
2019-05-10T21:56:04.513Z,44.67
2019-05-10T21:58:34.326Z,47.25
2019-05-10T22:01:04.377Z,46.70
2019-05-10T22:03:34.727Z,46.30
2019-05-10T22:06:04.955Z,44.38
2019-05-10T22:08:48.359Z,44.38
2019-05-10T22:11:06.654Z,44.90
2019-05-10T22:13:36.467Z,46.80
2019-05-10T22:16:06.551Z,48.80
2019-05-10T22:18:38.417Z,49.03
2019-05-10T22:21:08.253Z,48.20
2019-05-10T22:23:38.144Z,47.25
2019-05-10T22:26:07.950Z,47.33
2019-05-10T22:28:38.081Z,48.63
2019-05-10T22:31:08.198Z,47.95
2019-05-10T22:33:37.999Z,48.58
2019-05-10T22:36:07.831Z,48.50
2019-05-10T22:38:37.945Z,50.55
2019-05-10T22:41:07.782Z,52.27
2019-05-10T22:43:37.878Z,55.35
2019-05-10T22:46:07.988Z,55.03
2019-05-10T22:48:38.112Z,56.10
2019-05-10T22:51:07.928Z,54.95
2019-05-10T22:53:38.047Z,57.30
2019-05-10T22:56:08.168Z,57.65
2019-05-10T22:58:38.391Z,58.05
2019-05-10T23:01:08.198Z,60.25
2019-05-10T23:03:38.042Z,64.12
2019-05-10T23:06:08.135Z,63.85
2019-05-10T23:08:38.014Z,64.77
2019-05-10T23:11:08.171Z,63.48
2019-05-10T23:13:37.992Z,64.27
2019-05-10T23:16:07.797Z,65.92
2019-05-10T23:18:37.915Z,65.97
2019-05-10T23:21:07.731Z,66.92
2019-05-10T23:23:37.542Z,66.20
2019-05-10T23:26:08.494Z,68.37
2019-05-10T23:28:39.638Z,64.32
2019-05-10T23:31:09.747Z,65.95
2019-05-10T23:33:39.867Z,66.50
2019-05-10T23:36:09.980Z,68.07
2019-05-10T23:38:39.814Z,67.08
2019-05-10T23:41:09.924Z,65.47
2019-05-10T23:43:40.034Z,67.37
2019-05-10T23:46:09.846Z,67.78
2019-05-10T23:48:39.671Z,66.22
2019-05-10T23:51:09.475Z,65.52
2019-05-10T23:53:39.288Z,63.15
2019-05-10T23:56:09.417Z,65.55
2019-05-10T23:58:39.535Z,60.67
